createdAt,value
2023-01-18T00:00:33.775Z,6.03
2023-01-18T00:03:02.138Z,6.53
2023-01-18T00:05:30.138Z,6.38
2023-01-18T00:07:58.209Z,6.07
2023-01-18T00:10:27.779Z,6.10
2023-01-18T00:12:56.290Z,5.80
2023-01-18T00:15:24.451Z,5.90
2023-01-18T00:17:52.826Z,5.75
2023-01-18T00:20:23.364Z,6.55
2023-01-18T00:22:52.249Z,5.47
2023-01-18T00:25:21.044Z,5.63
2023-01-18T00:27:51.912Z,5.45
2023-01-18T00:30:21.935Z,5.60
2023-01-18T00:32:50.163Z,6.43
2023-01-18T00:35:22.204Z,6.65
2023-01-18T00:40:19.015Z,5.90
2023-01-18T00:43:04.221Z,6.60
2023-01-18T00:45:33.492Z,6.07
2023-01-18T00:48:02.715Z,6.50
2023-01-18T00:50:31.033Z,6.00
2023-01-18T00:53:00.183Z,5.50
2023-01-18T00:55:28.360Z,5.72
2023-01-18T00:57:56.215Z,5.78
2023-01-18T01:00:27.065Z,5.75
2023-01-18T01:02:57.014Z,6.50
2023-01-18T01:05:44.290Z,5.85
2023-01-18T01:08:17.466Z,6.28
2023-01-18T01:10:46.628Z,5.85
2023-01-18T01:13:32.260Z,5.55
2023-01-18T01:16:17.808Z,5.85
2023-01-18T01:19:04.628Z,5.82
2023-01-18T01:21:49.894Z,6.03
2023-01-18T01:24:35.141Z,5.80
2023-01-18T01:27:02.965Z,6.15
2023-01-18T01:29:31.145Z,6.38
2023-01-18T01:31:59.099Z,5.60
2023-01-18T01:34:30.040Z,5.85
2023-01-18T01:36:58.027Z,5.85
2023-01-18T01:39:25.939Z,6.03
2023-01-18T01:41:53.930Z,6.18
2023-01-18T01:44:44.804Z,5.95
2023-01-18T01:47:15.567Z,5.65
2023-01-18T01:49:48.389Z,6.07
2023-01-18T01:52:18.303Z,5.85
2023-01-18T01:54:48.827Z,6.35
2023-01-18T01:57:20.564Z,6.00
2023-01-18T01:59:52.427Z,5.53
2023-01-18T02:02:20.466Z,5.78
2023-01-18T02:04:53.940Z,6.00
2023-01-18T02:07:22.383Z,6.30
2023-01-18T02:09:51.240Z,6.78
2023-01-18T02:12:19.226Z,5.97
2023-01-18T02:14:47.729Z,6.18
2023-01-18T02:17:30.943Z,5.95
2023-01-18T02:20:34.771Z,6.78
2023-01-18T02:23:23.613Z,5.93
2023-01-18T02:26:14.048Z,5.82
2023-01-18T02:28:47.041Z,5.95
2023-01-18T02:31:17.287Z,5.72
2023-01-18T02:33:47.120Z,5.80
2023-01-18T02:36:22.145Z,6.05
2023-01-18T02:38:57.538Z,5.05
2023-01-18T02:41:51.699Z,6.65
2023-01-18T02:44:54.295Z,5.93
2023-01-18T02:49:49.873Z,6.43
2023-01-18T02:52:40.794Z,6.00
2023-01-18T02:55:13.497Z,5.97
2023-01-18T02:57:41.789Z,6.53
2023-01-18T03:00:12.882Z,6.53
2023-01-18T03:02:41.507Z,6.17
2023-01-18T03:05:10.635Z,5.80
2023-01-18T03:07:43.022Z,6.65
2023-01-18T03:10:12.331Z,6.40
2023-01-18T03:12:47.446Z,6.35
2023-01-18T03:15:21.588Z,6.20
2023-01-18T03:17:52.191Z,6.32
2023-01-18T03:20:25.699Z,6.25
2023-01-18T03:23:15.301Z,6.00
2023-01-18T03:25:44.911Z,5.80
2023-01-18T03:28:32.566Z,5.55
2023-01-18T03:31:22.730Z,6.03
2023-01-18T03:33:54.414Z,5.93
2023-01-18T03:36:28.082Z,5.88
2023-01-18T03:38:57.975Z,6.28
2023-01-18T03:41:28.242Z,5.68
2023-01-18T03:43:58.613Z,6.05
2023-01-18T03:46:30.404Z,6.68
2023-01-18T03:48:58.229Z,5.93
2023-01-18T03:51:30.201Z,6.35
2023-01-18T03:54:02.665Z,5.22
2023-01-18T03:56:35.906Z,6.05
2023-01-18T03:59:05.876Z,5.50
2023-01-18T04:01:35.314Z,5.97
2023-01-18T04:04:03.444Z,5.43
2023-01-18T04:06:32.538Z,5.28
2023-01-18T04:09:00.426Z,5.85
2023-01-18T04:11:28.174Z,5.93
2023-01-18T04:13:55.878Z,5.85
2023-01-18T04:16:23.903Z,5.47
2023-01-18T04:18:53.489Z,6.00
2023-01-18T04:21:21.161Z,5.50
2023-01-18T04:23:48.892Z,6.03
2023-01-18T04:26:16.828Z,5.85
2023-01-18T04:28:44.604Z,5.45
2023-01-18T04:31:12.507Z,5.60
2023-01-18T04:33:40.300Z,6.65
2023-01-18T04:36:10.392Z,6.10
2023-01-18T04:38:38.136Z,5.88
2023-01-18T04:41:06.462Z,5.75
2023-01-18T04:43:34.257Z,5.88
2023-01-18T04:46:02.040Z,5.53
2023-01-18T04:48:29.943Z,6.20
2023-01-18T04:50:57.798Z,5.82
2023-01-18T04:53:27.130Z,6.13
2023-01-18T04:55:55.134Z,6.00
2023-01-18T04:58:22.881Z,5.72
2023-01-18T05:00:50.664Z,5.95
2023-01-18T05:03:18.435Z,5.60
2023-01-18T05:05:47.047Z,5.68
2023-01-18T05:08:14.907Z,5.50
2023-01-18T05:10:44.059Z,5.88
2023-01-18T05:13:11.794Z,6.35
2023-01-18T05:15:40.102Z,6.03
2023-01-18T05:18:08.067Z,5.10
2023-01-18T05:20:35.787Z,5.85
2023-01-18T05:23:10.637Z,6.15
2023-01-18T05:25:40.168Z,5.97
2023-01-18T05:28:09.696Z,5.88
2023-01-18T05:31:09.704Z,5.90
2023-01-18T05:33:37.834Z,5.72
2023-01-18T05:36:05.995Z,5.70
2023-01-18T05:38:33.634Z,6.30
2023-01-18T05:41:01.530Z,5.88
2023-01-18T05:43:30.708Z,6.20
2023-01-18T05:45:58.756Z,6.13
2023-01-18T05:48:26.930Z,5.65
2023-01-18T05:50:54.568Z,6.45
2023-01-18T05:53:23.146Z,5.75
2023-01-18T05:55:58.288Z,6.47
2023-01-18T05:58:26.268Z,5.55
2023-01-18T06:00:55.930Z,6.10
2023-01-18T06:03:25.231Z,5.63
2023-01-18T06:05:53.402Z,6.28
2023-01-18T06:08:21.262Z,5.97
2023-01-18T06:10:53.979Z,6.40
2023-01-18T06:13:22.070Z,6.15
2023-01-18T06:15:49.865Z,6.60
2023-01-18T06:18:19.183Z,6.25
2023-01-18T06:20:46.864Z,6.20
2023-01-18T06:23:14.875Z,5.57
2023-01-18T06:25:42.500Z,5.47
2023-01-18T06:28:10.212Z,5.70
2023-01-18T06:30:37.930Z,6.57
2023-01-18T06:33:07.043Z,5.75
2023-01-18T06:35:37.146Z,5.65
2023-01-18T06:38:05.856Z,5.35
2023-01-18T06:40:33.596Z,5.25
2023-01-18T06:43:01.600Z,5.75
2023-01-18T06:45:29.767Z,5.70
2023-01-18T06:47:57.493Z,5.70
2023-01-18T06:50:25.765Z,5.95
2023-01-18T06:52:55.852Z,5.90
2023-01-18T06:55:23.785Z,5.05
2023-01-18T06:57:51.395Z,6.10
2023-01-18T07:00:19.891Z,5.82
2023-01-18T07:02:47.532Z,4.82
2023-01-18T07:05:15.131Z,6.03
2023-01-18T07:07:42.770Z,5.57
2023-01-18T07:10:16.096Z,5.40
2023-01-18T07:12:48.647Z,5.05
2023-01-18T07:15:21.848Z,5.60
2023-01-18T07:17:50.852Z,5.40
2023-01-18T07:20:19.935Z,5.40
2023-01-18T07:22:52.576Z,5.30
2023-01-18T07:25:22.600Z,5.55
2023-01-18T07:27:50.259Z,5.07
2023-01-18T07:30:18.708Z,5.90
2023-01-18T07:32:49.406Z,5.80
2023-01-18T07:35:18.384Z,5.65
2023-01-18T07:37:49.183Z,5.20
2023-01-18T07:40:17.227Z,5.60
2023-01-18T07:42:46.751Z,6.15
2023-01-18T07:45:14.779Z,5.38
2023-01-18T07:47:42.628Z,5.75
2023-01-18T07:50:11.905Z,5.70
2023-01-18T07:52:39.579Z,5.55
2023-01-18T07:55:07.885Z,5.68
2023-01-18T07:57:35.690Z,5.90
2023-01-18T08:00:07.175Z,5.43
2023-01-18T08:02:35.196Z,5.60
2023-01-18T08:05:03.726Z,5.82
2023-01-18T08:07:32.990Z,5.85
2023-01-18T08:10:00.704Z,5.32
2023-01-18T08:12:28.478Z,5.68
2023-01-18T08:14:56.100Z,5.65
2023-01-18T08:17:25.157Z,5.90
2023-01-18T08:19:52.819Z,5.95
2023-01-18T08:22:20.435Z,5.85
2023-01-18T08:24:48.028Z,6.22
2023-01-18T08:27:16.763Z,5.32
2023-01-18T08:29:44.384Z,5.47
2023-01-18T08:32:12.030Z,6.03
2023-01-18T08:34:40.951Z,6.00
2023-01-18T08:37:08.646Z,5.85
2023-01-18T08:39:36.234Z,5.40
2023-01-18T08:42:03.851Z,5.75
2023-01-18T08:44:31.492Z,6.28
2023-01-18T08:46:59.250Z,5.82
2023-01-18T08:49:27.546Z,5.45
2023-01-18T08:51:57.396Z,5.57
2023-01-18T08:54:25.560Z,5.18
2023-01-18T08:56:53.302Z,7.30
2023-01-18T08:59:23.684Z,6.10
2023-01-18T09:01:51.431Z,5.95
2023-01-18T09:04:19.425Z,6.20
2023-01-18T09:06:51.508Z,6.55
2023-01-18T09:11:51.665Z,5.95
2023-01-18T09:14:19.741Z,5.90
2023-01-18T09:16:47.713Z,6.72
2023-01-18T09:19:15.531Z,6.90
2023-01-18T09:21:45.828Z,7.03
2023-01-18T09:24:14.055Z,6.78
2023-01-18T09:26:45.084Z,7.00
2023-01-18T09:29:13.129Z,7.67
2023-01-18T09:31:40.762Z,6.88
2023-01-18T09:34:18.783Z,7.10
2023-01-18T09:36:47.595Z,7.15
2023-01-18T09:39:15.232Z,6.90
2023-01-18T09:41:46.975Z,6.43
2023-01-18T09:44:19.290Z,6.80
2023-01-18T09:46:51.868Z,6.85
2023-01-18T09:49:25.763Z,6.70
2023-01-18T09:52:01.110Z,6.47
2023-01-18T09:54:36.762Z,6.13
2023-01-18T09:57:10.103Z,6.88
2023-01-18T09:59:42.999Z,6.65
2023-01-18T10:02:18.433Z,6.28
2023-01-18T10:04:48.887Z,5.93
2023-01-18T10:07:18.034Z,5.70
2023-01-18T10:09:49.623Z,6.35
2023-01-18T10:12:23.640Z,6.65
2023-01-18T10:14:55.759Z,6.43
2023-01-18T10:17:25.310Z,6.15
2023-01-18T10:19:53.025Z,6.43
2023-01-18T10:22:23.661Z,6.43
2023-01-18T10:24:57.462Z,6.45
2023-01-18T10:27:41.463Z,5.97
2023-01-18T10:30:19.640Z,6.00
2023-01-18T10:32:51.905Z,5.97
2023-01-18T10:35:25.963Z,5.63
2023-01-18T10:37:56.518Z,5.85
2023-01-18T10:40:24.270Z,6.05
2023-01-18T10:42:56.659Z,6.10
2023-01-18T10:45:27.334Z,6.18
2023-01-18T10:47:56.771Z,6.35
2023-01-18T10:50:35.634Z,6.25
2023-01-18T10:53:21.011Z,5.90
2023-01-18T10:55:54.132Z,6.07
2023-01-18T10:58:28.043Z,6.32
2023-01-18T11:00:56.225Z,5.60
2023-01-18T11:03:26.274Z,6.00
2023-01-18T11:05:54.261Z,6.65
2023-01-18T11:08:24.071Z,6.05
2023-01-18T11:11:02.085Z,6.22
2023-01-18T11:13:34.753Z,6.57
2023-01-18T11:16:18.051Z,6.00
2023-01-18T11:19:03.288Z,6.53
2023-01-18T11:21:41.123Z,7.10
2023-01-18T11:24:14.013Z,8.73
2023-01-18T11:26:52.096Z,6.85
2023-01-18T11:29:23.245Z,6.45
2023-01-18T11:31:53.052Z,6.87
2023-01-18T11:34:24.278Z,6.90
2023-01-18T11:36:51.941Z,6.90
2023-01-18T11:39:31.122Z,7.07
2023-01-18T11:42:19.689Z,7.03
2023-01-18T11:44:54.695Z,6.63
2023-01-18T11:47:26.974Z,7.00
2023-01-18T11:50:03.722Z,7.35
2023-01-18T11:52:42.284Z,6.60
2023-01-18T11:55:23.460Z,6.70
2023-01-18T11:57:52.175Z,6.43
2023-01-18T12:00:28.087Z,6.53
2023-01-18T12:03:23.386Z,6.20
2023-01-18T12:05:54.870Z,5.97
2023-01-18T12:08:44.930Z,4.90
2023-01-18T12:11:30.686Z,6.60
2023-01-18T12:14:03.137Z,6.35
2023-01-18T12:16:47.393Z,6.32
2023-01-18T12:19:42.986Z,7.50
2023-01-18T12:22:29.667Z,6.40
2023-01-18T12:25:06.594Z,6.35
2023-01-18T12:27:41.609Z,7.18
2023-01-18T12:30:20.229Z,6.45
2023-01-18T12:33:06.609Z,7.05
2023-01-18T12:36:02.772Z,6.47
2023-01-18T12:38:33.234Z,6.57
2023-01-18T12:41:16.522Z,7.20
2023-01-18T12:43:53.248Z,6.63
2023-01-18T12:46:26.198Z,6.97
2023-01-18T12:48:58.791Z,6.75
2023-01-18T12:51:28.567Z,7.03
2023-01-18T12:53:58.725Z,7.95
2023-01-18T12:56:28.890Z,6.82
2023-01-18T12:58:58.970Z,7.40
2023-01-18T13:01:28.732Z,7.32
2023-01-18T13:04:02.043Z,7.47
2023-01-18T13:06:29.907Z,7.35
2023-01-18T13:09:01.112Z,7.47
2023-01-18T13:11:31.759Z,7.40
2023-01-18T13:14:07.152Z,7.40
2023-01-18T13:16:44.432Z,7.13
2023-01-18T13:19:14.956Z,8.10
2023-01-18T13:21:49.545Z,8.13
2023-01-18T13:24:25.247Z,8.00
2023-01-18T13:26:54.172Z,7.45
2023-01-18T13:29:25.888Z,7.53
2023-01-18T13:31:53.953Z,7.43
2023-01-18T13:34:28.766Z,6.70
2023-01-18T13:37:12.931Z,6.97
2023-01-18T13:39:46.163Z,6.88
2023-01-18T13:42:26.614Z,6.72
2023-01-18T13:45:17.207Z,7.07
2023-01-18T13:47:52.331Z,6.80
2023-01-18T13:50:45.229Z,7.47
2023-01-18T13:53:26.676Z,7.22
2023-01-18T13:56:34.520Z,7.38
2023-01-18T13:59:04.825Z,6.55
2023-01-18T14:01:37.330Z,6.68
2023-01-18T14:04:17.470Z,7.22
2023-01-18T14:06:46.879Z,7.68
2023-01-18T14:09:16.225Z,7.15
2023-01-18T14:11:52.161Z,6.07
2023-01-18T14:14:29.282Z,6.93
2023-01-18T14:17:02.439Z,6.18
2023-01-18T14:19:32.614Z,6.45
2023-01-18T14:22:19.291Z,6.47
2023-01-18T14:25:01.956Z,6.82
2023-01-18T14:27:32.595Z,6.65
2023-01-18T14:30:04.493Z,7.05
2023-01-18T14:32:36.120Z,7.35
2023-01-18T14:35:05.540Z,7.18
2023-01-18T14:37:35.580Z,6.90
2023-01-18T14:40:05.549Z,7.82
2023-01-18T14:42:34.994Z,7.10
2023-01-18T14:45:03.354Z,7.60
2023-01-18T14:47:33.487Z,7.60
2023-01-18T14:50:03.262Z,7.90
2023-01-18T14:52:33.195Z,9.20
2023-01-18T14:55:02.558Z,9.88
2023-01-18T14:57:30.492Z,12.00
2023-01-18T15:00:13.036Z,9.82
2023-01-18T15:02:40.832Z,8.02
2023-01-18T15:05:12.509Z,8.20
2023-01-18T15:07:40.890Z,7.70
2023-01-18T15:10:11.324Z,7.75
2023-01-18T15:12:39.377Z,7.25
2023-01-18T15:15:09.985Z,7.95
2023-01-18T15:17:38.719Z,8.32
2023-01-18T15:20:09.651Z,7.88
2023-01-18T15:22:40.479Z,7.70
2023-01-18T15:25:19.077Z,11.77
2023-01-18T15:27:50.386Z,8.52
2023-01-18T15:30:19.819Z,8.68
2023-01-18T15:32:49.287Z,9.10
2023-01-18T15:35:17.504Z,8.05
2023-01-18T15:37:45.221Z,8.80
2023-01-18T15:40:26.913Z,8.20
2023-01-18T15:43:02.028Z,9.00
2023-01-18T15:45:33.094Z,9.27
2023-01-18T15:48:03.398Z,6.73
2023-01-18T15:50:35.637Z,9.65
2023-01-18T15:53:12.057Z,8.60
2023-01-18T15:55:48.513Z,8.45
2023-01-18T15:58:24.062Z,8.02
2023-01-18T16:00:56.145Z,9.05
2023-01-18T16:06:03.628Z,8.70
2023-01-18T16:08:31.506Z,9.90
2023-01-18T16:11:00.609Z,9.02
2023-01-18T16:13:32.851Z,8.23
2023-01-18T16:16:14.403Z,7.70
2023-01-18T16:18:43.957Z,8.07
2023-01-18T16:21:14.947Z,8.30
2023-01-18T16:23:44.449Z,8.88
2023-01-18T16:26:14.487Z,9.30
2023-01-18T16:28:42.185Z,7.68
2023-01-18T16:31:10.004Z,8.43
2023-01-18T16:33:37.787Z,7.63
2023-01-18T16:36:16.534Z,8.32
2023-01-18T16:38:44.252Z,7.82
2023-01-18T16:41:14.800Z,7.70
2023-01-18T16:43:44.935Z,12.60
2023-01-18T16:46:13.077Z,8.05
2023-01-18T16:48:40.886Z,11.88
2023-01-18T16:51:16.059Z,8.73
2023-01-18T16:53:43.989Z,7.80
2023-01-18T16:56:16.664Z,16.25
2023-01-18T16:58:44.722Z,10.68
2023-01-18T17:01:13.870Z,8.80
2023-01-18T17:03:41.959Z,8.48
2023-01-18T17:06:15.771Z,9.35
2023-01-18T17:08:43.497Z,7.88
2023-01-18T17:11:11.990Z,9.90
2023-01-18T17:13:41.382Z,7.82
2023-01-18T17:16:13.332Z,9.07
2023-01-18T17:18:40.965Z,7.55
2023-01-18T17:21:11.103Z,7.35
2023-01-18T17:23:39.983Z,8.02
2023-01-18T17:26:09.137Z,8.23
2023-01-18T17:28:36.833Z,7.70
2023-01-18T17:31:06.236Z,7.60
2023-01-18T17:33:38.398Z,9.90
2023-01-18T17:38:34.282Z,11.30
2023-01-18T17:41:02.574Z,9.57
2023-01-18T17:43:34.615Z,8.23
2023-01-18T17:48:33.113Z,6.95
2023-01-18T17:51:00.887Z,7.97
2023-01-18T17:53:28.747Z,8.35
2023-01-18T17:58:44.294Z,8.27
2023-01-18T18:04:59.350Z,7.78
2023-01-18T18:07:28.156Z,8.98
2023-01-18T18:10:01.074Z,10.02
2023-01-18T18:12:30.417Z,11.20
2023-01-18T18:14:58.539Z,12.65
2023-01-18T18:17:27.944Z,13.48
2023-01-18T18:19:57.249Z,11.68
2023-01-18T18:22:25.396Z,10.27
2023-01-18T18:24:53.640Z,10.43
2023-01-18T18:27:21.979Z,8.07
2023-01-18T18:29:51.279Z,9.25
2023-01-18T18:32:21.392Z,8.30
2023-01-18T18:35:14.698Z,12.27
2023-01-18T18:37:52.394Z,11.75
2023-01-18T18:40:20.511Z,10.77
2023-01-18T18:43:00.641Z,10.05
2023-01-18T18:45:31.049Z,10.73
2023-01-18T18:47:59.016Z,10.40
2023-01-18T18:50:28.966Z,11.55
2023-01-18T18:52:57.684Z,11.07
2023-01-18T18:55:26.489Z,11.95
2023-01-18T18:57:54.798Z,13.43
2023-01-18T19:00:24.593Z,12.43
2023-01-18T19:02:52.533Z,13.02
2023-01-18T19:05:23.887Z,12.02
2023-01-18T19:07:56.877Z,10.27
2023-01-18T19:10:27.529Z,12.60
2023-01-18T19:12:55.820Z,16.13
2023-01-18T19:15:23.925Z,14.63
2023-01-18T19:17:53.582Z,12.50
2023-01-18T19:20:22.183Z,14.52
2023-01-18T19:22:51.114Z,12.88
2023-01-18T19:25:29.523Z,13.18
2023-01-18T19:27:57.546Z,11.35
2023-01-18T19:30:27.509Z,11.30
2023-01-18T19:33:20.725Z,10.27
2023-01-18T19:35:54.303Z,11.90
2023-01-18T19:38:22.848Z,11.20
2023-01-18T19:40:52.309Z,11.95
2023-01-18T19:43:20.395Z,11.02
2023-01-18T19:45:48.951Z,10.48
2023-01-18T19:49:00.429Z,10.98
2023-01-18T19:51:55.793Z,11.00
2023-01-18T19:54:24.727Z,12.35
2023-01-18T19:56:54.201Z,12.20
2023-01-18T19:59:22.114Z,12.95
2023-01-18T20:01:51.827Z,12.10
2023-01-18T20:12:20.635Z,13.80
2023-01-18T20:14:50.406Z,27.40
2023-01-18T20:17:20.059Z,14.13
2023-01-18T20:19:51.284Z,13.65
2023-01-18T20:22:19.583Z,13.02
2023-01-18T20:24:47.996Z,12.77
2023-01-18T20:27:18.333Z,15.10
2023-01-18T20:29:46.688Z,13.30
2023-01-18T20:32:17.206Z,13.60
2023-01-18T20:34:52.771Z,13.23
2023-01-18T20:37:22.428Z,14.20
2023-01-18T20:39:51.075Z,12.77
2023-01-18T20:42:20.884Z,13.02
2023-01-18T20:45:03.990Z,12.13
2023-01-18T20:47:32.958Z,11.82
2023-01-18T20:50:44.690Z,11.82
2023-01-18T20:53:15.305Z,9.67
2023-01-18T20:55:45.180Z,13.18
2023-01-18T20:58:19.653Z,12.63
2023-01-18T21:00:47.755Z,12.52
2023-01-18T21:03:17.967Z,13.45
2023-01-18T21:05:46.632Z,13.82
2023-01-18T21:08:17.436Z,14.23
2023-01-18T21:10:46.310Z,13.70
2023-01-18T21:13:14.211Z,15.02
2023-01-18T21:15:45.944Z,14.55
2023-01-18T21:18:14.001Z,15.35
2023-01-18T21:20:41.956Z,16.42
2023-01-18T21:23:10.877Z,14.95
2023-01-18T21:25:38.917Z,15.82
2023-01-18T21:28:06.775Z,15.10
2023-01-18T21:30:34.724Z,16.00
2023-01-18T21:33:04.037Z,16.70
2023-01-18T21:35:32.104Z,16.98
2023-01-18T21:38:02.949Z,16.15
2023-01-18T21:40:30.981Z,17.80
2023-01-18T21:43:24.636Z,15.32
2023-01-18T21:45:59.083Z,17.10
2023-01-18T21:48:30.009Z,15.48
2023-01-18T21:51:18.229Z,15.88
2023-01-18T21:54:03.478Z,15.25
2023-01-18T21:56:31.592Z,15.63
2023-01-18T21:59:01.133Z,16.40
2023-01-18T22:01:34.447Z,18.00
2023-01-18T22:04:22.505Z,17.02
2023-01-18T22:06:51.122Z,16.88
2023-01-18T22:09:19.210Z,16.75
2023-01-18T22:11:47.500Z,17.25
2023-01-18T22:14:15.636Z,17.02
2023-01-18T22:16:43.733Z,16.40
2023-01-18T22:19:13.275Z,15.85
2023-01-18T22:21:41.255Z,16.85
2023-01-18T22:24:09.619Z,15.68
2023-01-18T22:26:39.044Z,16.23
2023-01-18T22:29:06.987Z,15.88
2023-01-18T22:31:34.834Z,14.73
2023-01-18T22:34:04.616Z,15.00
2023-01-18T22:36:35.178Z,13.82
2023-01-18T22:39:03.239Z,13.73
2023-01-18T22:41:31.202Z,12.68
2023-01-18T22:43:59.168Z,11.18
2023-01-18T22:46:27.336Z,12.48
2023-01-18T22:48:55.285Z,12.00
2023-01-18T22:51:24.221Z,11.68
2023-01-18T22:53:53.700Z,10.63
2023-01-18T22:56:23.508Z,12.23
2023-01-18T22:58:52.937Z,11.88
2023-01-18T23:01:22.556Z,11.90
2023-01-18T23:03:51.141Z,10.90
2023-01-18T23:06:20.286Z,11.80
2023-01-18T23:08:48.613Z,11.95
2023-01-18T23:11:19.788Z,12.32
2023-01-18T23:14:15.479Z,11.90
2023-01-18T23:17:06.826Z,11.35
2023-01-18T23:19:34.851Z,11.53
2023-01-18T23:22:07.181Z,10.77
2023-01-18T23:24:36.034Z,12.05
2023-01-18T23:27:06.216Z,11.73
2023-01-18T23:29:34.064Z,11.32
2023-01-18T23:32:01.872Z,13.25
2023-01-18T23:34:29.971Z,11.98
2023-01-18T23:36:58.339Z,12.07
2023-01-18T23:39:43.981Z,12.57
2023-01-18T23:42:30.810Z,11.40
2023-01-18T23:45:16.489Z,11.45
2023-01-18T23:48:01.949Z,12.40
2023-01-18T23:50:47.516Z,11.30
2023-01-18T23:53:32.625Z,12.25
2023-01-18T23:56:00.715Z,11.18
2023-01-18T23:58:29.978Z,11.82
